Park Forest, Illinois
Current Conditions -  °F | °C
As of 4:35 PM on Wednesday 22 Oct 2014 (Local Time) from KIGQ Reporting Station
Clear Clear  
Wind Chill: 51°   Ceiling: Unl
Heat Index: 51°   Visibility: 10mi
Dew Point: 37°   Wind: 7mph
Humidity: 57%   Direction: 50°NE
Pressure: 30.29"   Gusts: NA
Location:  41.48°N, 87.68°W
Report Text: KIGQ 222135Z AUTO 05006KT 10SM CLR 11/03 A3029 RMK AO2 T01070026
Loading
Personal Weather Stations






























Interactive Weather Map
Tropical Storm Tracking
New forecast layout! Learn more

10-Day Weather Forecast

Advertisements
Track Severe Weather on mobile